createdAt,value
2022-10-08T00:12:19.194Z,18.20
2022-10-08T00:27:24.465Z,17.60
2022-10-08T00:42:28.931Z,18.20
2022-10-08T00:57:34.073Z,17.80
2022-10-08T01:12:48.068Z,17.50
2022-10-08T01:28:00.755Z,17.40
2022-10-08T01:43:09.253Z,17.30
2022-10-08T01:58:18.637Z,17.30
2022-10-08T02:13:23.775Z,17.30
2022-10-08T02:28:35.839Z,17.40
2022-10-08T02:43:45.201Z,17.20
2022-10-08T02:58:49.679Z,17.70
2022-10-08T03:13:58.357Z,17.80
2022-10-08T03:29:03.115Z,17.50
2022-10-08T03:44:10.768Z,17.00
2022-10-08T03:59:15.315Z,17.20
2022-10-08T04:14:19.729Z,16.90
2022-10-08T04:29:24.172Z,16.60
2022-10-08T04:44:28.351Z,16.40
2022-10-08T04:59:32.768Z,16.30
2022-10-08T05:14:38.638Z,16.80
2022-10-08T05:29:42.996Z,15.80
2022-10-08T05:44:47.123Z,16.50
2022-10-08T05:59:51.575Z,16.30
2022-10-08T06:14:55.975Z,16.10
2022-10-08T06:30:00.175Z,16.60
2022-10-08T06:45:04.855Z,16.10
2022-10-08T07:00:10.986Z,16.60
2022-10-08T07:15:15.538Z,16.30
2022-10-08T07:30:20.320Z,15.90
2022-10-08T07:45:24.712Z,16.00
2022-10-08T08:00:29.196Z,16.00
2022-10-08T08:15:33.602Z,16.40
2022-10-08T08:30:37.954Z,16.40
2022-10-08T08:45:46.999Z,16.70
2022-10-08T09:00:55.659Z,16.20
2022-10-08T09:16:00.308Z,16.60
2022-10-08T09:31:12.878Z,16.60
2022-10-08T09:46:30.496Z,17.40
2022-10-08T10:01:35.341Z,17.70
2022-10-08T10:16:40.738Z,18.50
2022-10-08T10:31:46.773Z,18.80
2022-10-08T10:46:52.521Z,19.50
2022-10-08T11:01:59.595Z,19.40
2022-10-08T11:17:07.689Z,20.50
2022-10-08T11:32:14.217Z,20.70
2022-10-08T11:47:37.235Z,21.00
2022-10-08T12:02:42.983Z,20.60
2022-10-08T12:17:53.107Z,20.60
2022-10-08T12:32:58.061Z,20.40
2022-10-08T12:48:04.699Z,20.80
2022-10-08T13:03:14.113Z,21.00
2022-10-08T13:18:22.949Z,21.30
2022-10-08T13:33:29.030Z,20.60
2022-10-08T13:48:33.411Z,21.90
2022-10-08T14:03:37.657Z,22.20
2022-10-08T14:18:41.924Z,21.30
2022-10-08T14:33:46.149Z,23.20
2022-10-08T14:48:50.460Z,24.90
2022-10-08T15:03:54.714Z,25.70
2022-10-08T15:18:58.954Z,26.20
2022-10-08T15:34:03.111Z,27.10
2022-10-08T15:49:07.325Z,26.40
2022-10-08T16:04:13.702Z,25.10
2022-10-08T16:19:19.125Z,23.70
2022-10-08T16:34:24.316Z,22.60
2022-10-08T16:49:30.068Z,22.20
2022-10-08T17:04:38.974Z,21.90
2022-10-08T17:19:44.337Z,21.30
2022-10-08T17:34:48.529Z,21.20
2022-10-08T17:49:52.673Z,21.10
2022-10-08T18:04:56.824Z,20.80
2022-10-08T18:20:01.001Z,20.60
2022-10-08T18:35:05.552Z,20.40
2022-10-08T18:50:10.602Z,20.20
2022-10-08T19:05:14.868Z,20.00
2022-10-08T19:20:19.114Z,20.00
2022-10-08T19:35:23.341Z,19.70
2022-10-08T19:50:27.551Z,19.50
2022-10-08T20:05:33.403Z,19.40
2022-10-08T20:20:37.632Z,19.40
2022-10-08T20:35:41.784Z,19.20
2022-10-08T20:50:45.948Z,19.00
2022-10-08T21:05:50.159Z,19.00
2022-10-08T21:20:54.356Z,18.70
2022-10-08T21:35:58.593Z,18.60
2022-10-08T21:51:04.148Z,18.40
2022-10-08T22:06:08.895Z,18.40
2022-10-08T22:21:14.071Z,18.30
2022-10-08T22:36:19.212Z,18.40
2022-10-08T22:51:23.391Z,18.00
2022-10-08T23:06:28.467Z,18.20
2022-10-08T23:21:32.784Z,17.90
2022-10-08T23:36:38.180Z,17.80
2022-10-08T23:51:42.333Z,17.80
